Time;durP1;ratioP1;P1;durP2;ratioP2;P2;SDS_P1;SDS_P2;PMS_P1;PMS_P2;Temp;Humidity;BMP_temperature;BMP_pressure;BME280_temperature;BME280_humidity;BME280_pressure;Samples;Min_cycle;Max_cycle;Signal;HPM_P1;HPM_P2
2024/04/17 00:00:33;;;;;;;5.32;1.60;;;4.40;99.90;;;;;;5476899;26;20428;-49
2024/04/17 00:02:59;;;;;;;4.85;1.30;;;4.40;99.90;;;;;;5486760;26;20038;-52
2024/04/17 00:05:25;;;;;;;;;;;4.30;99.90;;;;;;5486685;26;20021;-51
2024/04/17 00:07:51;;;;;;;;;;;4.20;99.90;;;;;;5485291;26;19936;-50
2024/04/17 00:10:17;;;;;;;6.55;1.60;;;4.10;99.90;;;;;;5461317;26;19940;-48
2024/04/17 00:12:43;;;;;;;10.52;1.75;;;4.10;99.90;;;;;;5425769;26;20083;-51
2024/04/17 00:15:08;;;;;;;4.32;1.40;;;4.00;99.90;;;;;;5448974;26;20067;-53
2024/04/17 00:17:34;;;;;;;5.60;1.45;;;4.00;99.90;;;;;;5474213;26;20530;-49
2024/04/17 00:20:00;;;;;;;6.85;1.50;;;4.00;99.90;;;;;;5461045;26;20048;-52
2024/04/17 00:22:25;;;;;;;;;;;4.00;99.90;;;;;;5485374;26;20006;-50
2024/04/17 00:24:51;;;;;;;;;;;4.10;99.90;;;;;;5448705;26;19936;-47
2024/04/17 00:27:17;;;;;;;;;;;4.10;99.90;;;;;;5470109;26;20012;-52
2024/04/17 00:29:42;;;;;;;5.72;1.48;;;4.20;99.90;;;;;;5458181;26;19923;-53
2024/04/17 00:32:08;;;;;;;7.93;1.65;;;4.20;99.90;;;;;;5467257;26;20083;-50
2024/04/17 00:34:34;;;;;;;;;;;4.30;99.90;;;;;;5473687;26;20006;-48
2024/04/17 00:36:59;;;;;;;;;;;4.30;99.90;;;;;;5449053;26;19924;-50
2024/04/17 00:39:26;;;;;;;;;;;4.40;99.90;;;;;;5448713;26;19925;-53
2024/04/17 00:41:52;;;;;;;10.95;1.67;;;4.50;99.90;;;;;;5440128;26;19965;-50
2024/04/17 00:44:17;;;;;;;3.95;1.50;;;4.50;99.90;;;;;;5432326;26;20052;-51
2024/04/17 00:46:43;;;;;;;;;;;4.60;99.90;;;;;;5447996;26;20461;-47
2024/04/17 00:49:10;;;;;;;;;;;4.70;99.90;;;;;;5454751;26;19924;-46
2024/04/17 00:51:36;;;;;;;4.30;1.10;;;4.80;99.90;;;;;;5419674;26;19924;-49
2024/04/17 00:54:03;;;;;;;5.47;1.23;;;4.80;99.90;;;;;;5465545;26;20077;-49
2024/04/17 00:56:29;;;;;;;4.22;0.90;;;5.00;99.90;;;;;;5445960;26;20026;-51
2024/04/17 00:58:55;;;;;;;4.50;0.93;;;5.00;99.90;;;;;;5471492;26;20047;-50
2024/04/17 01:01:21;;;;;;;3.15;0.82;;;5.10;99.90;;;;;;5470649;26;20014;-48
2024/04/17 01:03:48;;;;;;;2.30;0.70;;;5.20;99.90;;;;;;5450578;26;20003;-48
2024/04/17 01:06:13;;;;;;;;;;;5.20;99.90;;;;;;5467577;26;20017;-51
2024/04/17 01:08:39;;;;;;;;;;;5.30;99.90;;;;;;5456931;26;19924;-45
2024/04/17 01:11:05;;;;;;;1.95;0.80;;;5.30;99.90;;;;;;5425611;26;19930;-53
2024/04/17 01:13:30;;;;;;;2.53;0.80;;;5.30;99.90;;;;;;5465616;26;20035;-53
2024/04/17 01:15:59;;;;;;;1.75;0.70;;;5.40;99.90;;;;;;5473179;26;20695;-50
2024/04/17 01:18:25;;;;;;;5.88;1.23;;;5.40;99.90;;;;;;5458111;26;20056;-48
2024/04/17 01:20:51;;;;;;;;;;;5.40;99.90;;;;;;5456075;26;20007;-44
2024/04/17 01:23:17;;;;;;;2.47;0.90;;;5.40;99.90;;;;;;5448968;26;20395;-47
2024/04/17 01:25:42;;;;;;;;;;;5.40;99.90;;;;;;5471915;26;20017;-55
2024/04/17 01:28:09;;;;;;;;;;;5.40;99.90;;;;;;5428252;26;19924;-47
2024/04/17 01:30:34;;;;;;;3.10;1.13;;;5.10;99.90;;;;;;5484730;26;19928;-53
2024/04/17 01:33:00;;;;;;;;;;;5.50;99.90;;;;;;5459806;26;20346;-49
2024/04/17 01:35:26;;;;;;;4.80;0.82;;;5.50;99.90;;;;;;5468833;26;19924;-50
2024/04/17 01:37:51;;;;;;;;;;;5.50;99.90;;;;;;5459287;26;20006;-48
2024/04/17 01:40:18;;;;;;;2.55;0.80;;;5.60;99.90;;;;;;5478848;26;19931;-48
2024/04/17 01:42:43;;;;;;;;;;;5.60;99.90;;;;;;5484779;26;20006;-51
2024/04/17 01:45:09;;;;;;;1.80;0.73;;;5.60;99.90;;;;;;5484742;26;19935;-48
2024/04/17 01:47:35;;;;;;;;;;;5.60;99.90;;;;;;5484137;26;20006;-51
2024/04/17 01:50:03;;;;;;;5.03;0.80;;;5.60;99.90;;;;;;5441583;26;20402;-50
2024/04/17 01:52:28;;;;;;;2.33;1.00;;;5.60;99.90;;;;;;5484483;26;20079;-52
2024/04/17 01:54:54;;;;;;;;;;;5.60;99.90;;;;;;5484743;26;20036;-48
2024/04/17 01:57:20;;;;;;;3.95;1.02;;;5.70;99.90;;;;;;5480312;26;19968;-49
2024/04/17 01:59:45;;;;;;;2.85;0.90;;;5.40;99.90;;;;;;5416860;26;20050;-51
2024/04/17 02:02:11;;;;;;;;;;;5.70;99.90;;;;;;5477231;26;20407;-44
2024/04/17 02:04:37;;;;;;;1.45;0.70;;;5.70;99.90;;;;;;5484746;26;20240;-50
2024/04/17 02:07:03;;;;;;;;;;;5.70;99.90;;;;;;5469032;26;20021;-49
2024/04/17 02:09:29;;;;;;;3.55;0.80;;;5.70;99.90;;;;;;5451506;26;19924;-52
2024/04/17 02:11:54;;;;;;;;;;;5.70;99.90;;;;;;5484301;26;20002;-53
2024/04/17 02:14:20;;;;;;;1.73;0.77;;;5.60;99.90;;;;;;5452174;26;19923;-47
2024/04/17 02:16:46;;;;;;;;;;;5.60;99.90;;;;;;5467711;26;20022;-48
2024/04/17 02:19:11;;;;;;;2.65;0.75;;;8.50;99.90;;;;;;5449751;26;19931;-49
2024/04/17 02:21:37;;;;;;;;;;;5.60;99.90;;;;;;5484976;26;20318;-44
2024/04/17 02:24:03;;;;;;;3.20;0.70;;;5.70;99.90;;;;;;5460766;26;20356;-53
2024/04/17 02:26:36;;;;;;;3.20;0.70;;;5.70;99.90;;;;;;5426898;26;20014;-45
2024/04/17 02:29:02;;;;;;;;;;;5.70;99.90;;;;;;5463024;26;20354;-44
2024/04/17 02:31:27;;;;;;;2.08;0.75;;;5.70;99.90;;;;;;5447573;26;19940;-49
2024/04/17 02:33:53;;;;;;;;;;;5.70;99.90;;;;;;5416859;26;20018;-45
2024/04/17 02:36:18;;;;;;;;;;;5.80;99.90;;;;;;5447255;26;19939;-50
2024/04/17 02:38:45;;;;;;;;;;;5.80;99.90;;;;;;5448685;26;19924;-46
2024/04/17 02:41:11;;;;;;;1.40;0.65;;;5.80;99.90;;;;;;5446285;26;20469;-48
2024/04/17 02:43:37;;;;;;;;;;;5.70;99.90;;;;;;5449742;26;20003;-47
2024/04/17 02:46:02;;;;;;;;;;;5.70;99.90;;;;;;5451486;26;20364;-51
2024/04/17 02:48:28;;;;;;;1.80;0.60;;;5.80;99.90;;;;;;5475278;26;19931;-46
2024/04/17 02:50:53;;;;;;;;;;;5.80;99.90;;;;;;5488076;26;20007;-48
2024/04/17 02:53:19;;;;;;;1.50;0.55;;;5.80;99.90;;;;;;5487166;26;19936;-47
2024/04/17 02:55:46;;;;;;;2.38;0.77;;;5.70;99.90;;;;;;5448175;26;20003;-46
2024/04/17 02:58:11;;;;;;;;;;;5.80;99.90;;;;;;5453520;26;20449;-46
2024/04/17 03:00:37;;;;;;;3.42;0.70;;;5.80;99.90;;;;;;5486887;26;19923;-45
2024/04/17 03:03:04;;;;;;;;;;;5.80;99.90;;;;;;5488138;26;20135;-49
2024/04/17 03:05:33;;;;;;;2.17;0.70;;;5.80;99.90;;;;;;5486990;26;20351;-51
2024/04/17 03:08:19;;;;;;;2.63;0.90;;;5.80;99.90;;;;;;5447824;26;20002;-47
2024/04/17 03:10:44;;;;;;;;;;;5.70;99.90;;;;;;5486481;26;20033;-50
2024/04/17 03:13:27;;;;;;;2.47;0.80;;;6.60;99.90;;;;;;5459998;26;20355;-51
2024/04/17 03:15:52;;;;;;;;;;;5.70;99.90;;;;;;5487274;26;20082;-51
2024/04/17 03:18:18;;;;;;;2.33;0.70;;;5.70;99.90;;;;;;5479110;26;19924;-46
2024/04/17 03:20:44;;;;;;;3.22;0.70;;;5.50;99.90;;;;;;5486261;26;20017;-49
2024/04/17 03:23:10;;;;;;;;;;;5.70;99.90;;;;;;5488015;26;20002;-44
2024/04/17 03:25:35;;;;;;;2.25;0.70;;;5.60;99.90;;;;;;5485870;26;19956;-49
2024/04/17 03:28:01;;;;;;;;;;;5.60;99.90;;;;;;5486839;26;20017;-49
2024/04/17 03:30:27;;;;;;;2.92;0.70;;;5.60;99.90;;;;;;5449033;26;20251;-47
2024/04/17 03:32:53;;;;;;;3.50;0.70;;;5.60;99.90;;;;;;5484666;26;20078;-48
2024/04/17 03:35:18;;;;;;;;;;;5.60;99.90;;;;;;5448883;26;20006;-53
2024/04/17 03:37:44;;;;;;;4.18;0.70;;;6.10;99.90;;;;;;5446066;26;19923;-47
2024/04/17 03:40:10;;;;;;;;;;;5.50;99.90;;;;;;5487019;26;20457;-45
2024/04/17 03:42:37;;;;;;;5.60;0.55;;;5.50;99.90;;;;;;5486136;26;19935;-45
2024/04/17 03:45:06;;;;;;;;;;;5.50;99.90;;;;;;5487374;26;20458;-51
2024/04/17 03:47:52;;;;;;;6.28;1.13;;;5.50;99.90;;;;;;5456222;26;19975;-48
2024/04/17 03:50:18;;;;;;;;;;;5.60;99.90;;;;;;5487019;26;20046;-46
2024/04/17 03:52:43;;;;;;;4.10;0.70;;;5.60;99.90;;;;;;5486851;26;19931;-50
2024/04/17 03:55:10;;;;;;;4.57;0.60;;;5.60;99.90;;;;;;5485588;26;20016;-48
2024/04/17 03:57:35;;;;;;;;;;;5.50;99.90;;;;;;5472532;26;20006;-51
2024/04/17 04:00:01;;;;;;;3.45;0.75;;;5.50;99.90;;;;;;5475927;26;20267;-48
2024/04/17 04:02:27;;;;;;;3.13;0.60;;;5.40;99.90;;;;;;5486486;26;20021;-51
2024/04/17 04:04:54;;;;;;;1.88;0.63;;;5.30;99.90;;;;;;5486458;26;20020;-47
2024/04/17 04:07:21;;;;;;;1.98;0.57;;;5.40;99.90;;;;;;5485293;26;20492;-50
2024/04/17 04:09:46;;;;;;;;;;;5.30;99.90;;;;;;5468983;26;20005;-49
2024/04/17 04:12:12;;;;;;;2.20;0.77;;;5.90;99.90;;;;;;5485716;26;19924;-48
2024/04/17 04:14:38;;;;;;;;;;;5.20;99.90;;;;;;5486836;26;20006;-44
2024/04/17 04:17:04;;;;;;;8.25;0.77;;;5.90;99.90;;;;;;5485353;26;19932;-49
2024/04/17 04:19:29;;;;;;;;;;;5.20;99.90;;;;;;5466241;26;20077;-49
2024/04/17 04:21:55;;;;;;;6.25;0.75;;;5.30;99.90;;;;;;5486186;26;20358;-48
2024/04/17 04:24:21;;;;;;;1.98;0.65;;;5.20;99.90;;;;;;5485592;26;20038;-49
2024/04/17 04:26:46;;;;;;;;;;;5.30;99.90;;;;;;5446730;26;20007;-50
2024/04/17 04:29:32;;;;;;;5.95;0.80;;;5.70;99.90;;;;;;5456503;26;20360;-49
2024/04/17 04:32:13;;;;;;;;;;;5.30;99.90;;;;;;5485630;26;20021;-52
2024/04/17 04:34:38;;;;;;;2.35;0.50;;;4.50;99.90;;;;;;5484021;26;19924;-55
2024/04/17 04:37:04;;;;;;;;;;;5.20;99.90;;;;;;5484490;26;20097;-49
2024/04/17 04:39:30;;;;;;;2.67;0.60;;;4.80;99.90;;;;;;5483875;26;19992;-57
2024/04/17 04:41:55;;;;;;;;;;;5.10;99.90;;;;;;5485034;26;20078;-55
2024/04/17 04:44:21;;;;;;;2.72;0.88;;;5.10;99.90;;;;;;5485552;26;20482;-55
2024/04/17 04:46:47;;;;;;;3.63;0.60;;;5.10;99.90;;;;;;5485972;26;20009;-55
2024/04/17 04:49:12;;;;;;;;;;;5.00;99.90;;;;;;5484598;26;20006;-55
2024/04/17 04:51:38;;;;;;;;;;;5.00;99.90;;;;;;5485749;26;19935;-55
2024/04/17 04:54:03;;;;;;;;;;;5.00;99.90;;;;;;5454710;26;20351;-55
2024/04/17 04:56:29;;;;;;;1.52;0.57;;;4.90;99.90;;;;;;5484409;26;20347;-54
2024/04/17 04:58:55;;;;;;;;;;;4.90;99.90;;;;;;5484141;26;20021;-55
2024/04/17 05:01:20;;;;;;;3.00;0.73;;;4.90;99.90;;;;;;5470351;26;19930;-55
2024/04/17 05:03:46;;;;;;;4.18;0.55;;;4.20;99.90;;;;;;5485391;26;20026;-55
2024/04/17 05:06:12;;;;;;;;;;;5.00;99.90;;;;;;5485420;26;20082;-54
2024/04/17 05:08:38;;;;;;;4.00;0.77;;;5.00;99.90;;;;;;5484908;26;20561;-55
2024/04/17 05:11:04;;;;;;;;;;;5.00;99.90;;;;;;5485063;26;20017;-55
2024/04/17 05:13:30;;;;;;;2.22;0.50;;;5.00;99.90;;;;;;5484482;26;19924;-56
2024/04/17 05:15:55;;;;;;;;;;;5.00;99.90;;;;;;5484026;26;20006;-55
2024/04/17 05:18:21;;;;;;;3.60;0.80;;;4.90;99.90;;;;;;5466736;26;19942;-55
2024/04/17 05:20:46;;;;;;;;;;;4.90;99.90;;;;;;5481990;26;20006;-56
2024/04/17 05:23:12;;;;;;;4.20;0.73;;;4.90;99.90;;;;;;5485203;26;19924;-55
2024/04/17 05:25:39;;;;;;;;;;;4.90;99.90;;;;;;5484436;26;20731;-55
2024/04/17 05:28:05;;;;;;;3.03;0.80;;;8.10;99.90;;;;;;5484101;26;19931;-56
2024/04/17 05:30:32;;;;;;;;;;;4.90;99.90;;;;;;5484640;26;20006;-54
2024/04/17 05:32:57;;;;;;;6.18;1.00;;;5.20;99.90;;;;;;5483710;26;19951;-55
2024/04/17 05:35:23;;;;;;;;;;;5.10;99.90;;;;;;5477583;26;20326;-55
2024/04/17 05:37:49;;;;;;;4.03;0.80;;;4.90;99.90;;;;;;5470712;26;19930;-55
2024/04/17 05:40:14;;;;;;;;;;;5.20;99.90;;;;;;5420460;26;20006;-55
2024/04/17 05:42:40;;;;;;;4.07;0.70;;;5.20;99.90;;;;;;5431243;26;19935;-55
2024/04/17 05:45:06;;;;;;;;;;;5.20;99.90;;;;;;5467514;26;20708;-54
2024/04/17 05:47:32;;;;;;;2.10;0.98;;;5.20;99.90;;;;;;5467455;26;19942;-55
2024/04/17 05:49:57;;;;;;;6.50;0.98;;;4.70;99.90;;;;;;5481972;26;20006;-54
2024/04/17 05:52:23;;;;;;;6.70;1.50;;;5.60;99.90;;;;;;5481644;26;20017;-55
2024/04/17 05:54:49;;;;;;;8.93;1.50;;;6.00;99.90;;;;;;5483875;26;20017;-53
2024/04/17 05:57:14;;;;;;;;;;;5.40;99.90;;;;;;5484755;26;20034;-55
2024/04/17 05:59:40;;;;;;;;;;;5.50;99.90;;;;;;5478458;26;20021;-55
2024/04/17 06:02:06;;;;;;;5.60;0.90;;;5.60;99.90;;;;;;5484083;26;19924;-56
2024/04/17 06:04:31;;;;;;;;;;;5.60;99.90;;;;;;5485075;26;20006;-55
2024/04/17 06:06:57;;;;;;;;;;;5.70;99.90;;;;;;5484608;26;19931;-55
2024/04/17 06:09:24;;;;;;;4.32;1.20;;;5.90;99.90;;;;;;5484059;26;19942;-56
2024/04/17 06:11:50;;;;;;;6.05;1.27;;;5.70;99.90;;;;;;5482888;26;20006;-55
2024/04/17 06:14:16;;;;;;;;;;;6.20;99.90;;;;;;5483942;26;20079;-56
2024/04/17 06:16:44;;;;;;;8.38;1.60;;;7.50;99.90;;;;;;5484031;26;19924;-55
2024/04/17 06:19:11;;;;;;;9.20;1.70;;;8.70;99.90;;;;;;5485567;26;20078;-55
2024/04/17 06:21:37;;;;;;;7.90;1.42;;;9.80;99.90;;;;;;5449556;26;20015;-56
2024/04/17 06:24:03;;;;;;;;;;;10.20;99.90;;;;;;5483318;26;20086;-55
2024/04/17 06:26:29;;;;;;;8.23;1.35;;;11.10;99.90;;;;;;5486778;26;19931;-55
2024/04/17 06:28:56;;;;;;;;;;;11.60;99.90;;;;;;5484601;26;20020;-56
2024/04/17 06:31:22;;;;;;;6.45;1.05;;;11.90;99.90;;;;;;5487850;26;19933;-55
2024/04/17 06:33:47;;;;;;;;;;;11.60;99.90;;;;;;5488529;26;20396;-56
2024/04/17 06:36:13;;;;;;;6.32;1.40;;;11.80;99.90;;;;;;5486699;26;19924;-56
2024/04/17 06:38:39;;;;;;;;;;;11.80;99.90;;;;;;5487958;26;20125;-55
2024/04/17 06:41:04;;;;;;;8.02;1.15;;;11.50;99.90;;;;;;5453999;26;19924;-56
2024/04/17 06:43:30;;;;;;;;;;;11.00;99.90;;;;;;5487792;26;20006;-56
2024/04/17 06:45:56;;;;;;;5.88;1.17;;;10.70;99.90;;;;;;5487100;26;19969;-56
2024/04/17 06:48:21;;;;;;;;;;;10.60;99.90;;;;;;5486324;26;20006;-56
2024/04/17 06:50:47;;;;;;;5.40;1.23;;;11.40;99.90;;;;;;5487257;26;19930;-57
2024/04/17 06:53:13;;;;;;;10.30;1.02;;;12.60;99.90;;;;;;5487491;26;20408;-59
2024/04/17 06:55:41;;;;;;;5.30;1.20;;;13.60;99.90;;;;;;5486747;26;20006;-56
2024/04/17 06:58:07;;;;;;;7.00;1.05;;;15.00;97.80;;;;;;5486930;26;20006;-57
2024/04/17 07:00:35;;;;;;;4.32;0.80;;;15.90;54.50;;;;;;5487131;26;20389;-57
2024/04/17 07:03:01;;;;;;;3.78;0.90;;;16.70;1.00;;;;;;5482484;26;20002;-57
2024/04/17 07:05:27;;;;;;;5.15;1.20;;;18.20;99.90;;;;;;5482414;26;20082;-57
2024/04/17 07:07:53;;;;;;;6.43;1.00;;;18.20;18.50;;;;;;5482370;26;20014;-57
2024/04/17 07:10:21;;;;;;;9.75;1.17;;;18.10;1.00;;;;;;5481762;26;20002;-57
2024/04/17 07:12:47;;;;;;;6.57;1.15;;;18.90;1.00;;;;;;5482286;26;20002;-58
2024/04/17 07:15:13;;;;;;;5.53;0.90;;;19.60;1.00;;;;;;5482516;26;20062;-58
2024/04/17 07:17:38;;;;;;;5.35;1.20;;;20.70;99.90;;;;;;5456246;26;20021;-57
2024/04/17 07:20:05;;;;;;;6.25;1.30;;;20.10;99.90;;;;;;5482328;26;20046;-58
2024/04/17 07:22:30;;;;;;;6.78;1.05;;;20.50;1.00;;;;;;5482500;26;20333;-58
2024/04/17 07:24:56;;;;;;;5.20;1.13;;;19.80;1.00;;;;;;5482339;26;20014;-58
2024/04/17 07:27:22;;;;;;;5.10;0.95;;;20.80;1.00;;;;;;5480744;26;20014;-59
2024/04/17 07:29:48;;;;;;;4.85;0.90;;;20.40;99.90;;;;;;5482187;26;20079;-57
2024/04/17 07:32:15;;;;;;;5.97;0.80;;;20.70;99.90;;;;;;5482793;26;20010;-58
2024/04/17 07:34:40;;;;;;;7.22;0.88;;;20.90;1.00;;;;;;5483698;26;20020;-58
2024/04/17 07:37:06;;;;;;;5.25;0.80;;;21.90;99.90;;;;;;5485836;26;20046;-58
2024/04/17 07:39:32;;;;;;;4.90;0.90;;;22.40;99.90;;;;;;5485738;26;20018;-60
2024/04/17 07:41:58;;;;;;;4.85;0.90;;;20.90;99.90;;;;;;5468198;26;20006;-59
2024/04/17 07:44:23;;;;;;;8.38;1.27;;;22.50;99.90;;;;;;5463979;26;20007;-58
2024/04/17 07:46:49;;;;;;;5.03;0.98;;;22.90;99.90;;;;;;5483111;26;20020;-58
2024/04/17 07:49:15;;;;;;;2.90;0.90;;;21.90;99.90;;;;;;5481551;26;20006;-58
2024/04/17 07:51:41;;;;;;;6.80;1.23;;;21.40;99.90;;;;;;5459311;26;20003;-59
2024/04/17 07:54:07;;;;;;;7.40;1.08;;;22.00;99.90;;;;;;5459480;26;20494;-58
2024/04/17 07:56:32;;;;;;;4.18;0.93;;;22.80;99.90;;;;;;5457989;26;20002;-58
2024/04/17 07:58:58;;;;;;;7.43;1.08;;;22.00;70.40;;;;;;5458844;26;20016;-58
2024/04/17 08:01:24;;;;;;;3.58;0.80;;;22.20;20.50;;;;;;5486036;26;20013;-58
2024/04/17 08:03:50;;;;;;;5.18;1.00;;;22.30;99.90;;;;;;5486157;26;20017;-58
2024/04/17 08:06:20;;;;;;;4.38;0.90;;;22.70;1.00;;;;;;5485359;26;20082;-58
2024/04/17 08:08:46;;;;;;;6.38;1.02;;;21.80;99.90;;;;;;5486095;26;20024;-59
2024/04/17 08:11:14;;;;;;;4.13;1.00;;;22.30;99.90;;;;;;5485100;26;20037;-57
2024/04/17 08:13:39;;;;;;;5.47;0.93;;;21.10;1.00;;;;;;5485489;26;20529;-59
2024/04/17 08:16:05;;;;;;;5.25;0.95;;;22.10;99.90;;;;;;5447380;26;20002;-58
2024/04/17 08:18:31;;;;;;;4.65;0.88;;;20.80;99.90;;;;;;5454230;26;20069;-58
2024/04/17 08:20:57;;;;;;;3.47;0.73;;;21.60;99.90;;;;;;5477275;26;20018;-59
2024/04/17 08:23:24;;;;;;;5.03;0.80;;;21.40;1.00;;;;;;5472071;26;20013;-58
2024/04/17 08:25:50;;;;;;;5.43;0.90;;;22.10;52.10;;;;;;5466659;26;23526;-55
2024/04/17 08:28:17;;;;;;;4.60;0.90;;;21.50;99.90;;;;;;5459814;26;20007;-58
2024/04/17 08:30:44;;;;;;;5.30;1.00;;;22.50;99.90;;;;;;5476667;26;20650;-59
2024/04/17 08:33:09;;;;;;;4.55;0.80;;;21.90;99.90;;;;;;5465308;26;20006;-58
2024/04/17 08:35:37;;;;;;;5.50;1.08;;;23.40;99.90;;;;;;5456167;26;20338;-59
2024/04/17 08:38:02;;;;;;;6.32;0.95;;;22.90;1.00;;;;;;5428547;26;20450;-58
2024/04/17 08:40:28;;;;;;;4.95;1.00;;;23.10;1.00;;;;;;5440319;26;20026;-58
2024/04/17 08:42:56;;;;;;;5.18;0.90;;;22.20;99.90;;;;;;5452943;26;20013;-58
2024/04/17 08:45:31;;;;;;;4.50;0.85;;;20.90;1.00;;;;;;5485840;26;20006;-58
2024/04/17 08:48:00;;;;;;;5.50;0.90;;;20.80;1.00;;;;;;5483663;26;20014;-58
2024/04/17 08:50:31;;;;;;;5.35;1.23;;;19.70;1.00;;;;;;5485666;26;20330;-58
2024/04/17 08:53:01;;;;;;;4.55;1.00;;;18.40;99.90;;;;;;5485960;26;20006;-58
2024/04/17 08:55:28;;;;;;;5.47;1.02;;;16.70;99.90;;;;;;5484676;26;20002;-58
2024/04/17 08:57:55;;;;;;;4.47;1.10;;;16.30;99.90;;;;;;5484675;26;20461;-58
2024/04/17 09:00:24;;;;;;;5.25;1.17;;;16.30;1.00;;;;;;5485585;26;20024;-58
2024/04/17 09:02:55;;;;;;;6.32;0.90;;;17.40;99.90;;;;;;5486038;26;20341;-58
2024/04/17 09:05:21;;;;;;;5.05;1.00;;;18.70;1.00;;;;;;5485560;26;20020;-58
2024/04/17 09:07:49;;;;;;;3.00;0.65;;;20.20;99.90;;;;;;5484753;26;20473;-58
2024/04/17 09:10:17;;;;;;;3.00;0.80;;;19.80;99.90;;;;;;5484705;26;20082;-58
2024/04/17 09:12:44;;;;;;;4.88;0.80;;;18.10;99.90;;;;;;5485540;26;20014;-58
2024/04/17 09:15:14;;;;;;;5.40;1.00;;;16.70;99.90;;;;;;5485673;26;20007;-58
2024/04/17 09:17:43;;;;;;;5.05;0.75;;;15.60;99.90;;;;;;5473507;26;20014;-58
2024/04/17 09:20:12;;;;;;;4.57;0.90;;;14.50;1.00;;;;;;5453500;26;20527;-58
2024/04/17 09:22:38;;;;;;;3.95;1.00;;;13.70;99.90;;;;;;5484942;26;20029;-57
2024/04/17 09:25:15;;;;;;;3.30;0.68;;;12.90;99.90;;;;;;5484852;26;20010;-57
2024/04/17 09:27:41;;;;;;;2.72;0.70;;;12.50;1.00;;;;;;5484110;26;20006;-57
2024/04/17 09:30:07;;;;;;;2.97;0.73;;;12.20;22.00;;;;;;5485326;26;20548;-57
2024/04/17 09:32:33;;;;;;;4.65;0.60;;;11.90;1.00;;;;;;5485479;26;20093;-58
2024/04/17 09:35:00;;;;;;;2.92;0.55;;;13.10;1.00;;;;;;5438647;26;20113;-58
2024/04/17 09:37:26;;;;;;;2.92;0.70;;;14.10;1.00;;;;;;5441785;26;20006;-58
2024/04/17 09:40:03;;;;;;;3.20;0.73;;;14.00;15.70;;;;;;5484663;26;20404;-57
2024/04/17 09:42:29;;;;;;;3.28;0.70;;;13.40;53.80;;;;;;5485146;26;20403;-57
2024/04/17 09:45:00;;;;;;;3.20;0.90;;;12.80;45.80;;;;;;5484813;26;20223;-57
2024/04/17 09:47:28;;;;;;;2.70;0.60;;;12.20;54.90;;;;;;5476085;26;19999;-57
2024/04/17 09:49:59;;;;;;;3.03;0.73;;;12.10;62.80;;;;;;5473358;26;20060;-57
2024/04/17 09:52:27;;;;;;;5.18;1.15;;;12.10;77.30;;;;;;5452603;26;20066;-57
2024/04/17 09:54:54;;;;;;;3.17;0.70;;;11.60;90.40;;;;;;5483585;26;20488;-58
2024/04/17 09:57:21;;;;;;;3.50;0.77;;;12.00;93.80;;;;;;5483664;26;20021;-57
2024/04/17 09:59:48;;;;;;;3.50;0.70;;;12.60;72.40;;;;;;5445802;26;20399;-57
2024/04/17 10:02:15;;;;;;;3.65;0.80;;;14.00;70.00;;;;;;5467117;26;20074;-58
2024/04/17 10:04:43;;;;;;;3.08;0.60;;;15.00;84.30;;;;;;5452139;26;20017;-58
2024/04/17 10:07:13;;;;;;;1.85;0.70;;;17.20;1.00;;;;;;5475712;26;20458;-58
2024/04/17 10:09:42;;;;;;;3.05;0.60;;;18.90;1.00;;;;;;5483553;26;20034;-59
2024/04/17 10:12:12;;;;;;;1.38;0.55;;;19.50;99.90;;;;;;5483760;26;20006;-59
2024/04/17 10:14:39;;;;;;;4.63;0.70;;;18.90;99.90;;;;;;5483850;26;20016;-58
2024/04/17 10:17:07;;;;;;;3.78;0.63;;;19.30;99.90;;;;;;5483735;26;20333;-59
2024/04/17 10:19:37;;;;;;;5.45;0.80;;;20.60;99.90;;;;;;5483924;26;20007;-59
2024/04/17 10:22:06;;;;;;;2.92;0.80;;;19.70;99.90;;;;;;5480356;26;20361;-59
2024/04/17 10:24:32;;;;;;;2.25;0.73;;;20.50;99.90;;;;;;5460889;26;20410;-59
2024/04/17 10:26:57;;;;;;;3.97;0.90;;;19.80;1.00;;;;;;5468558;26;20006;-58
2024/04/17 10:29:27;;;;;;;2.28;0.80;;;19.50;1.00;;;;;;5483363;26;20016;-59
2024/04/17 10:31:56;;;;;;;1.95;0.70;;;19.00;99.90;;;;;;5452201;26;20346;-59
2024/04/17 10:34:29;;;;;;;3.78;0.75;;;18.20;44.70;;;;;;5483732;26;20465;-59
2024/04/17 10:37:03;;;;;;;2.78;0.70;;;18.50;99.90;;;;;;5465165;26;20078;-58
2024/04/17 10:39:29;;;;;;;4.32;0.70;;;18.80;1.00;;;;;;5483448;26;20075;-58
2024/04/17 10:41:57;;;;;;;4.38;0.80;;;19.60;28.90;;;;;;5482657;26;20158;-59
2024/04/17 10:44:23;;;;;;;5.22;0.68;;;20.10;99.90;;;;;;5483997;26;20014;-58
2024/04/17 10:47:03;;;;;;;1.67;0.50;;;20.70;99.90;;;;;;5460639;26;20021;-58
2024/04/17 10:49:29;;;;;;;2.28;0.60;;;20.90;99.90;;;;;;5464170;26;20095;-59
2024/04/17 10:51:55;;;;;;;1.20;0.50;;;20.60;1.00;;;;;;5462843;26;20508;-59
2024/04/17 10:54:24;;;;;;;2.53;0.60;;;20.30;1.00;;;;;;5455259;26;20018;-58
2024/04/17 10:56:50;;;;;;;3.00;0.50;;;20.20;1.00;;;;;;5472217;26;20010;-58
2024/04/17 10:59:16;;;;;;;2.08;0.40;;;20.40;99.90;;;;;;5468226;26;20006;-57
2024/04/17 11:01:42;;;;;;;1.02;0.40;;;20.30;99.90;;;;;;5460978;26;20703;-58
2024/04/17 11:04:10;;;;;;;1.85;0.60;;;20.40;99.90;;;;;;5431442;26;20383;-59
2024/04/17 11:06:36;;;;;;;1.02;0.47;;;20.60;99.90;;;;;;5472472;26;20006;-59
2024/04/17 11:09:06;;;;;;;1.48;0.55;;;20.00;99.90;;;;;;5486818;26;20017;-59
2024/04/17 11:11:32;;;;;;;2.78;0.50;;;20.00;1.00;;;;;;5485743;26;20002;-59
2024/04/17 11:13:57;;;;;;;1.90;0.50;;;20.50;16.80;;;;;;5454748;26;20014;-59
2024/04/17 11:16:24;;;;;;;2.22;0.80;;;20.90;1.00;;;;;;5475924;26;20009;-58
2024/04/17 11:18:49;;;;;;;3.67;0.68;;;20.70;99.90;;;;;;5475284;26;20006;-59
2024/04/17 11:21:15;;;;;;;3.72;0.73;;;20.90;99.90;;;;;;5454729;26;20021;-58
2024/04/17 11:23:42;;;;;;;1.58;0.50;;;20.80;99.90;;;;;;5486706;26;20002;-59
2024/04/17 11:26:12;;;;;;;1.38;0.57;;;20.20;99.90;;;;;;5483539;26;20075;-59
2024/04/17 11:28:42;;;;;;;2.05;0.50;;;19.90;92.80;;;;;;5487083;26;20006;-59
2024/04/17 11:31:13;;;;;;;2.53;0.70;;;19.80;99.90;;;;;;5486355;26;20046;-59
2024/04/17 11:33:39;;;;;;;3.38;0.80;;;20.20;99.90;;;;;;5486757;26;20006;-59
2024/04/17 11:36:09;;;;;;;2.17;0.70;;;20.10;99.90;;;;;;5485432;26;20036;-59
2024/04/17 11:38:36;;;;;;;3.80;0.60;;;19.80;99.90;;;;;;5469768;26;20002;-59
2024/04/17 11:41:02;;;;;;;3.63;0.80;;;19.40;42.20;;;;;;5485514;26;20002;-59
2024/04/17 11:43:28;;;;;;;2.22;0.63;;;19.40;99.90;;;;;;5486590;26;20014;-59
2024/04/17 11:45:54;;;;;;;2.13;0.60;;;19.30;99.90;;;;;;5453931;26;20591;-59
2024/04/17 11:48:20;;;;;;;2.70;0.70;;;19.10;99.90;;;;;;5486093;26;20016;-59
2024/04/17 11:50:46;;;;;;;2.10;0.50;;;19.60;1.00;;;;;;5486170;26;20006;-59
2024/04/17 11:53:11;;;;;;;2.40;0.60;;;19.40;1.00;;;;;;5486778;26;20004;-57
2024/04/17 11:55:37;;;;;;;2.92;0.60;;;19.50;1.00;;;;;;5485400;26;20353;-59
2024/04/17 11:58:04;;;;;;;3.25;0.60;;;19.40;41.60;;;;;;5485492;26;20721;-58
2024/04/17 12:00:31;;;;;;;3.35;0.52;;;19.00;1.00;;;;;;5486241;26;20006;-59
2024/04/17 12:02:57;;;;;;;4.38;0.63;;;20.00;99.90;;;;;;5486818;26;20038;-59
2024/04/17 12:05:23;;;;;;;1.35;0.40;;;20.20;99.90;;;;;;5485925;26;20468;-59
2024/04/17 12:07:50;;;;;;;2.72;0.65;;;19.50;1.00;;;;;;5485680;26;20595;-59
2024/04/17 12:10:17;;;;;;;1.85;0.60;;;18.70;1.00;;;;;;5484809;26;20020;-58
2024/04/17 12:12:43;;;;;;;2.42;0.90;;;19.30;99.90;;;;;;5461849;26;20010;-58
2024/04/17 12:15:09;;;;;;;4.13;0.82;;;18.00;8.70;;;;;;5486544;26;20017;-58
2024/04/17 12:17:35;;;;;;;4.13;0.93;;;17.50;1.00;;;;;;5485425;26;20654;-59
2024/04/17 12:20:01;;;;;;;3.17;0.73;;;16.80;99.90;;;;;;5486080;26;20014;-59
2024/04/17 12:22:27;;;;;;;1.55;0.60;;;16.60;99.90;;;;;;5453810;26;20055;-59
2024/04/17 12:27:37;;;;;;;1.08;0.40;;;16.30;99.90;;;;;;5469924;26;20082;-59
2024/04/17 12:30:04;;;;;;;3.40;0.70;;;16.10;1.00;;;;;;5486315;26;20018;-61
2024/04/17 12:32:30;;;;;;;6.82;0.90;;;15.80;1.00;;;;;;5485564;26;20016;-58
2024/04/17 12:34:56;;;;;;;2.38;0.63;;;15.40;99.90;;;;;;5485656;26;20006;-60
2024/04/17 12:37:21;;;;;;;1.95;0.60;;;15.30;99.90;;;;;;5445507;26;20450;-58
2024/04/17 12:39:47;;;;;;;1.40;0.60;;;15.40;1.00;;;;;;5470968;26;20559;-58
2024/04/17 12:42:14;;;;;;;1.35;0.50;;;15.20;28.00;;;;;;5430358;26;20003;-58
2024/04/17 12:44:40;;;;;;;3.08;0.60;;;15.10;99.90;;;;;;5479755;26;20057;-58
2024/04/17 12:47:06;;;;;;;3.92;0.68;;;14.90;1.00;;;;;;5481930;26;20006;-59
2024/04/17 12:49:32;;;;;;;1.90;0.55;;;14.80;1.00;;;;;;5476488;26;20078;-59
2024/04/17 12:51:58;;;;;;;1.42;0.60;;;14.50;1.00;;;;;;5476906;26;20017;-58
2024/04/17 12:54:24;;;;;;;2.63;0.70;;;14.10;1.00;;;;;;5480780;26;20082;-58
2024/04/17 12:56:59;;;;;;;3.33;0.63;;;13.90;1.00;;;;;;5456600;26;20016;-58
2024/04/17 12:59:25;;;;;;;2.33;0.70;;;13.80;1.00;;;;;;5473442;26;20014;-58
2024/04/17 13:01:51;;;;;;;2.72;0.50;;;13.60;99.90;;;;;;5449458;26;20083;-59
2024/04/17 13:04:17;;;;;;;1.10;0.60;;;12.90;99.90;;;;;;5478636;26;20006;-58
2024/04/17 13:06:43;;;;;;;2.63;0.50;;;12.70;1.00;;;;;;5480353;26;20033;-60
2024/04/17 13:09:10;;;;;;;2.00;0.50;;;12.60;1.00;;;;;;5445941;26;20491;-58
2024/04/17 13:11:38;;;;;;;0.80;0.40;;;12.30;1.00;;;;;;5468022;26;20104;-59